sensor_id;sensor_type;location;lat;lon;timestamp;temperature;humidity
16732;DHT22;8484;50.904;9.192;2024-02-23T00:01:13;8.20;99.90
16732;DHT22;8484;50.904;9.192;2024-02-23T00:03:59;8.20;99.90
16732;DHT22;8484;50.904;9.192;2024-02-23T00:06:48;8.20;99.90
16732;DHT22;8484;50.904;9.192;2024-02-23T00:09:33;8.00;99.90
16732;DHT22;8484;50.904;9.192;2024-02-23T00:12:19;7.90;99.90
16732;DHT22;8484;50.904;9.192;2024-02-23T00:15:05;7.90;99.90
16732;DHT22;8484;50.904;9.192;2024-02-23T00:17:51;7.90;99.90
16732;DHT22;8484;50.904;9.192;2024-02-23T00:20:37;8.00;99.90
16732;DHT22;8484;50.904;9.192;2024-02-23T00:23:24;7.90;99.90
16732;DHT22;8484;50.904;9.192;2024-02-23T00:26:09;7.90;99.90
16732;DHT22;8484;50.904;9.192;2024-02-23T00:28:55;7.90;99.90
16732;DHT22;8484;50.904;9.192;2024-02-23T00:31:41;7.90;99.90
16732;DHT22;8484;50.904;9.192;2024-02-23T00:34:27;7.90;99.90
16732;DHT22;8484;50.904;9.192;2024-02-23T00:37:14;7.90;99.90
16732;DHT22;8484;50.904;9.192;2024-02-23T00:40:01;8.10;99.90
16732;DHT22;8484;50.904;9.192;2024-02-23T00:42:48;8.00;99.90
16732;DHT22;8484;50.904;9.192;2024-02-23T00:45:33;7.60;99.90
16732;DHT22;8484;50.904;9.192;2024-02-23T00:48:19;7.60;99.90
16732;DHT22;8484;50.904;9.192;2024-02-23T00:51:04;7.60;99.90
16732;DHT22;8484;50.904;9.192;2024-02-23T00:53:50;7.50;99.90
16732;DHT22;8484;50.904;9.192;2024-02-23T00:56:37;7.60;99.90
16732;DHT22;8484;50.904;9.192;2024-02-23T00:59:22;7.90;99.90
16732;DHT22;8484;50.904;9.192;2024-02-23T01:02:08;7.50;99.90
16732;DHT22;8484;50.904;9.192;2024-02-23T01:04:54;7.30;99.90
16732;DHT22;8484;50.904;9.192;2024-02-23T01:07:42;7.20;99.90
16732;DHT22;8484;50.904;9.192;2024-02-23T01:10:28;6.60;99.90
16732;DHT22;8484;50.904;9.192;2024-02-23T01:13:15;6.40;99.90
16732;DHT22;8484;50.904;9.192;2024-02-23T01:16:01;6.30;99.90
16732;DHT22;8484;50.904;9.192;2024-02-23T01:18:46;6.40;99.90
16732;DHT22;8484;50.904;9.192;2024-02-23T01:21:32;6.30;99.90
16732;DHT22;8484;50.904;9.192;2024-02-23T01:24:17;7.10;99.90
16732;DHT22;8484;50.904;9.192;2024-02-23T01:27:09;6.40;99.90
16732;DHT22;8484;50.904;9.192;2024-02-23T01:29:56;6.40;99.90
16732;DHT22;8484;50.904;9.192;2024-02-23T01:32:42;7.10;99.90
16732;DHT22;8484;50.904;9.192;2024-02-23T01:35:34;6.60;99.90
16732;DHT22;8484;50.904;9.192;2024-02-23T01:38:20;6.70;99.90
16732;DHT22;8484;50.904;9.192;2024-02-23T01:41:06;6.60;99.90
16732;DHT22;8484;50.904;9.192;2024-02-23T01:43:52;6.00;99.90
16732;DHT22;8484;50.904;9.192;2024-02-23T01:46:39;6.60;99.90
16732;DHT22;8484;50.904;9.192;2024-02-23T01:49:25;5.70;99.90
16732;DHT22;8484;50.904;9.192;2024-02-23T01:52:14;5.60;99.90
16732;DHT22;8484;50.904;9.192;2024-02-23T01:55:00;5.60;99.90
16732;DHT22;8484;50.904;9.192;2024-02-23T01:57:47;5.40;99.90
16732;DHT22;8484;50.904;9.192;2024-02-23T02:00:32;5.40;99.90
16732;DHT22;8484;50.904;9.192;2024-02-23T02:03:21;5.30;99.90
16732;DHT22;8484;50.904;9.192;2024-02-23T02:06:07;5.40;99.90
16732;DHT22;8484;50.904;9.192;2024-02-23T02:08:53;5.30;99.90
16732;DHT22;8484;50.904;9.192;2024-02-23T02:11:45;5.20;99.90
16732;DHT22;8484;50.904;9.192;2024-02-23T02:14:43;5.10;99.90
16732;DHT22;8484;50.904;9.192;2024-02-23T02:17:29;5.00;99.90
16732;DHT22;8484;50.904;9.192;2024-02-23T02:20:24;4.90;99.90
16732;DHT22;8484;50.904;9.192;2024-02-23T02:23:10;4.90;99.90
16732;DHT22;8484;50.904;9.192;2024-02-23T02:25:56;4.90;99.90
16732;DHT22;8484;50.904;9.192;2024-02-23T02:28:42;5.00;99.90
16732;DHT22;8484;50.904;9.192;2024-02-23T02:31:27;4.90;99.90
16732;DHT22;8484;50.904;9.192;2024-02-23T02:34:13;4.90;99.90
16732;DHT22;8484;50.904;9.192;2024-02-23T02:37:00;5.00;99.90
16732;DHT22;8484;50.904;9.192;2024-02-23T02:39:46;5.10;99.90
16732;DHT22;8484;50.904;9.192;2024-02-23T02:42:32;4.90;99.90
16732;DHT22;8484;50.904;9.192;2024-02-23T02:45:17;5.10;99.90
16732;DHT22;8484;50.904;9.192;2024-02-23T02:48:03;5.00;99.90
16732;DHT22;8484;50.904;9.192;2024-02-23T02:50:49;4.80;99.90
16732;DHT22;8484;50.904;9.192;2024-02-23T02:53:36;4.80;99.90
16732;DHT22;8484;50.904;9.192;2024-02-23T02:56:22;4.80;99.90
16732;DHT22;8484;50.904;9.192;2024-02-23T02:59:07;4.70;99.90
16732;DHT22;8484;50.904;9.192;2024-02-23T03:01:53;5.60;99.90
16732;DHT22;8484;50.904;9.192;2024-02-23T03:04:39;5.10;99.90
16732;DHT22;8484;50.904;9.192;2024-02-23T03:07:24;4.70;99.90
16732;DHT22;8484;50.904;9.192;2024-02-23T03:10:11;4.80;99.90
16732;DHT22;8484;50.904;9.192;2024-02-23T03:12:56;5.30;99.90
16732;DHT22;8484;50.904;9.192;2024-02-23T03:15:42;4.70;99.90
16732;DHT22;8484;50.904;9.192;2024-02-23T03:18:28;4.70;99.90
16732;DHT22;8484;50.904;9.192;2024-02-23T03:21:13;4.60;99.90
16732;DHT22;8484;50.904;9.192;2024-02-23T03:23:59;4.50;99.90
16732;DHT22;8484;50.904;9.192;2024-02-23T03:26:46;4.60;99.90
16732;DHT22;8484;50.904;9.192;2024-02-23T03:29:32;4.50;99.90
16732;DHT22;8484;50.904;9.192;2024-02-23T03:32:18;4.40;99.90
16732;DHT22;8484;50.904;9.192;2024-02-23T03:35:04;4.40;99.90
16732;DHT22;8484;50.904;9.192;2024-02-23T03:37:50;4.30;99.90
16732;DHT22;8484;50.904;9.192;2024-02-23T03:40:35;4.20;99.90
16732;DHT22;8484;50.904;9.192;2024-02-23T03:43:22;4.30;99.90
16732;DHT22;8484;50.904;9.192;2024-02-23T03:46:08;4.30;99.90
16732;DHT22;8484;50.904;9.192;2024-02-23T03:48:53;4.30;99.90
16732;DHT22;8484;50.904;9.192;2024-02-23T03:51:40;4.20;99.90
16732;DHT22;8484;50.904;9.192;2024-02-23T03:54:25;4.30;99.90
16732;DHT22;8484;50.904;9.192;2024-02-23T03:57:11;4.20;99.90
16732;DHT22;8484;50.904;9.192;2024-02-23T03:59:58;4.20;99.90
16732;DHT22;8484;50.904;9.192;2024-02-23T04:02:44;4.10;99.90
16732;DHT22;8484;50.904;9.192;2024-02-23T04:05:29;4.10;99.90
16732;DHT22;8484;50.904;9.192;2024-02-23T04:08:15;4.00;99.90
16732;DHT22;8484;50.904;9.192;2024-02-23T04:11:00;4.10;99.90
16732;DHT22;8484;50.904;9.192;2024-02-23T04:13:46;4.10;99.90
16732;DHT22;8484;50.904;9.192;2024-02-23T04:16:33;4.10;99.90
16732;DHT22;8484;50.904;9.192;2024-02-23T04:19:19;4.00;99.90
16732;DHT22;8484;50.904;9.192;2024-02-23T04:22:06;4.00;99.90
16732;DHT22;8484;50.904;9.192;2024-02-23T04:24:52;4.00;99.90
16732;DHT22;8484;50.904;9.192;2024-02-23T04:27:38;4.00;99.90
16732;DHT22;8484;50.904;9.192;2024-02-23T04:30:24;4.00;99.90
16732;DHT22;8484;50.904;9.192;2024-02-23T04:33:11;4.00;99.90
16732;DHT22;8484;50.904;9.192;2024-02-23T04:35:56;4.10;99.90
16732;DHT22;8484;50.904;9.192;2024-02-23T04:38:42;4.00;99.90
16732;DHT22;8484;50.904;9.192;2024-02-23T04:41:28;4.00;99.90
16732;DHT22;8484;50.904;9.192;2024-02-23T04:44:13;4.00;99.90
16732;DHT22;8484;50.904;9.192;2024-02-23T04:46:59;3.90;99.90
16732;DHT22;8484;50.904;9.192;2024-02-23T04:49:46;3.80;99.90
16732;DHT22;8484;50.904;9.192;2024-02-23T04:52:32;4.00;99.90
16732;DHT22;8484;50.904;9.192;2024-02-23T04:55:17;4.00;99.90
16732;DHT22;8484;50.904;9.192;2024-02-23T04:58:03;4.00;99.90
16732;DHT22;8484;50.904;9.192;2024-02-23T05:00:49;4.10;99.90
16732;DHT22;8484;50.904;9.192;2024-02-23T05:03:34;4.10;99.90
16732;DHT22;8484;50.904;9.192;2024-02-23T05:06:21;4.20;99.90
16732;DHT22;8484;50.904;9.192;2024-02-23T05:09:07;4.30;99.90
16732;DHT22;8484;50.904;9.192;2024-02-23T05:11:59;4.30;99.90
16732;DHT22;8484;50.904;9.192;2024-02-23T05:14:44;4.30;99.90
16732;DHT22;8484;50.904;9.192;2024-02-23T05:17:30;4.30;99.90
16732;DHT22;8484;50.904;9.192;2024-02-23T05:20:15;4.30;99.90
16732;DHT22;8484;50.904;9.192;2024-02-23T05:23:02;4.40;99.90
16732;DHT22;8484;50.904;9.192;2024-02-23T05:25:48;4.30;99.90
16732;DHT22;8484;50.904;9.192;2024-02-23T05:28:33;4.50;99.90
16732;DHT22;8484;50.904;9.192;2024-02-23T05:31:19;4.50;99.90
16732;DHT22;8484;50.904;9.192;2024-02-23T05:34:04;4.50;99.90
16732;DHT22;8484;50.904;9.192;2024-02-23T05:36:50;4.50;99.90
16732;DHT22;8484;50.904;9.192;2024-02-23T05:39:37;4.50;99.90
16732;DHT22;8484;50.904;9.192;2024-02-23T05:42:23;4.50;99.90
16732;DHT22;8484;50.904;9.192;2024-02-23T05:45:09;4.50;99.90
16732;DHT22;8484;50.904;9.192;2024-02-23T05:47:54;4.60;99.90
16732;DHT22;8484;50.904;9.192;2024-02-23T05:50:40;4.60;99.90
16732;DHT22;8484;50.904;9.192;2024-02-23T05:53:25;4.60;99.90
16732;DHT22;8484;50.904;9.192;2024-02-23T05:56:16;4.60;99.90
16732;DHT22;8484;50.904;9.192;2024-02-23T05:59:02;4.60;99.90
16732;DHT22;8484;50.904;9.192;2024-02-23T06:01:47;5.60;99.90
16732;DHT22;8484;50.904;9.192;2024-02-23T06:04:33;4.60;99.90
16732;DHT22;8484;50.904;9.192;2024-02-23T06:07:18;4.70;99.90
16732;DHT22;8484;50.904;9.192;2024-02-23T06:10:06;4.60;99.90
16732;DHT22;8484;50.904;9.192;2024-02-23T06:12:53;4.60;99.90
16732;DHT22;8484;50.904;9.192;2024-02-23T06:15:39;4.60;99.90
16732;DHT22;8484;50.904;9.192;2024-02-23T06:18:26;4.60;99.90
16732;DHT22;8484;50.904;9.192;2024-02-23T06:21:13;5.20;99.90
16732;DHT22;8484;50.904;9.192;2024-02-23T06:23:58;4.70;99.90
16732;DHT22;8484;50.904;9.192;2024-02-23T06:26:44;4.60;99.90
16732;DHT22;8484;50.904;9.192;2024-02-23T06:29:32;4.60;99.90
16732;DHT22;8484;50.904;9.192;2024-02-23T06:32:17;4.50;99.90
16732;DHT22;8484;50.904;9.192;2024-02-23T06:35:03;4.40;99.90
16732;DHT22;8484;50.904;9.192;2024-02-23T06:37:50;4.50;99.90
16732;DHT22;8484;50.904;9.192;2024-02-23T06:40:36;4.50;99.90
16732;DHT22;8484;50.904;9.192;2024-02-23T06:43:22;4.50;99.90
16732;DHT22;8484;50.904;9.192;2024-02-23T06:46:09;4.30;99.90
16732;DHT22;8484;50.904;9.192;2024-02-23T06:48:54;4.30;99.90
16732;DHT22;8484;50.904;9.192;2024-02-23T06:51:41;4.20;99.90
16732;DHT22;8484;50.904;9.192;2024-02-23T06:54:26;4.00;99.90
16732;DHT22;8484;50.904;9.192;2024-02-23T06:57:12;4.10;99.90
16732;DHT22;8484;50.904;9.192;2024-02-23T06:59:58;4.10;99.90
16732;DHT22;8484;50.904;9.192;2024-02-23T07:02:45;4.10;99.90
16732;DHT22;8484;50.904;9.192;2024-02-23T07:05:30;4.10;99.90
16732;DHT22;8484;50.904;9.192;2024-02-23T07:08:16;4.10;99.90
16732;DHT22;8484;50.904;9.192;2024-02-23T07:11:02;4.20;99.90
16732;DHT22;8484;50.904;9.192;2024-02-23T07:13:48;4.30;99.90
16732;DHT22;8484;50.904;9.192;2024-02-23T07:16:33;4.40;99.90
16732;DHT22;8484;50.904;9.192;2024-02-23T07:19:23;4.40;99.90
16732;DHT22;8484;50.904;9.192;2024-02-23T07:22:09;4.30;99.90
16732;DHT22;8484;50.904;9.192;2024-02-23T07:24:55;4.40;99.90
16732;DHT22;8484;50.904;9.192;2024-02-23T07:27:40;5.00;99.90
16732;DHT22;8484;50.904;9.192;2024-02-23T07:30:26;4.50;99.90
16732;DHT22;8484;50.904;9.192;2024-02-23T07:33:11;4.50;99.90
16732;DHT22;8484;50.904;9.192;2024-02-23T07:35:59;4.50;99.90
16732;DHT22;8484;50.904;9.192;2024-02-23T07:38:44;4.50;99.90
16732;DHT22;8484;50.904;9.192;2024-02-23T07:41:30;4.50;99.90
16732;DHT22;8484;50.904;9.192;2024-02-23T07:44:15;4.50;99.90
16732;DHT22;8484;50.904;9.192;2024-02-23T07:47:01;4.60;99.90
16732;DHT22;8484;50.904;9.192;2024-02-23T07:49:46;4.70;99.90
16732;DHT22;8484;50.904;9.192;2024-02-23T07:52:33;4.70;99.90
16732;DHT22;8484;50.904;9.192;2024-02-23T07:55:19;4.70;99.90
16732;DHT22;8484;50.904;9.192;2024-02-23T07:58:05;4.60;99.90
16732;DHT22;8484;50.904;9.192;2024-02-23T08:00:50;4.80;99.90
16732;DHT22;8484;50.904;9.192;2024-02-23T08:03:36;4.90;99.90
16732;DHT22;8484;50.904;9.192;2024-02-23T08:06:21;4.90;99.90
16732;DHT22;8484;50.904;9.192;2024-02-23T08:09:08;5.00;99.90
16732;DHT22;8484;50.904;9.192;2024-02-23T08:11:54;5.30;99.90
16732;DHT22;8484;50.904;9.192;2024-02-23T08:14:39;5.40;99.90
16732;DHT22;8484;50.904;9.192;2024-02-23T08:17:25;5.40;99.90
16732;DHT22;8484;50.904;9.192;2024-02-23T08:20:11;5.60;99.90
16732;DHT22;8484;50.904;9.192;2024-02-23T08:22:57;5.50;99.90
16732;DHT22;8484;50.904;9.192;2024-02-23T08:25:44;5.50;99.90
16732;DHT22;8484;50.904;9.192;2024-02-23T08:28:29;5.50;99.90
16732;DHT22;8484;50.904;9.192;2024-02-23T08:31:15;5.50;99.90
16732;DHT22;8484;50.904;9.192;2024-02-23T08:34:01;5.50;99.90
16732;DHT22;8484;50.904;9.192;2024-02-23T08:36:46;5.50;99.90
16732;DHT22;8484;50.904;9.192;2024-02-23T08:39:32;5.50;99.90
16732;DHT22;8484;50.904;9.192;2024-02-23T08:42:19;5.60;99.90
16732;DHT22;8484;50.904;9.192;2024-02-23T08:45:06;5.80;99.90
16732;DHT22;8484;50.904;9.192;2024-02-23T08:47:51;5.80;99.90
16732;DHT22;8484;50.904;9.192;2024-02-23T08:50:37;5.80;99.90
16732;DHT22;8484;50.904;9.192;2024-02-23T08:53:23;5.80;99.90
16732;DHT22;8484;50.904;9.192;2024-02-23T08:56:08;5.90;99.90
16732;DHT22;8484;50.904;9.192;2024-02-23T08:58:55;5.80;99.90
16732;DHT22;8484;50.904;9.192;2024-02-23T09:01:41;5.80;99.90
16732;DHT22;8484;50.904;9.192;2024-02-23T09:04:28;5.80;99.90
16732;DHT22;8484;50.904;9.192;2024-02-23T09:07:14;5.90;99.90
16732;DHT22;8484;50.904;9.192;2024-02-23T09:10:00;6.00;99.90
16732;DHT22;8484;50.904;9.192;2024-02-23T09:12:45;6.20;99.90
16732;DHT22;8484;50.904;9.192;2024-02-23T09:15:32;6.10;99.90
16732;DHT22;8484;50.904;9.192;2024-02-23T09:18:18;5.90;99.90
16732;DHT22;8484;50.904;9.192;2024-02-23T09:21:04;6.50;99.90
16732;DHT22;8484;50.904;9.192;2024-02-23T09:23:49;7.70;99.90
16732;DHT22;8484;50.904;9.192;2024-02-23T09:26:35;7.60;99.90
16732;DHT22;8484;50.904;9.192;2024-02-23T09:29:20;7.90;99.90
16732;DHT22;8484;50.904;9.192;2024-02-23T09:32:08;7.80;99.90
16732;DHT22;8484;50.904;9.192;2024-02-23T09:34:53;8.30;99.90
16732;DHT22;8484;50.904;9.192;2024-02-23T09:37:38;8.20;99.90
16732;DHT22;8484;50.904;9.192;2024-02-23T09:40:24;8.10;99.90
16732;DHT22;8484;50.904;9.192;2024-02-23T09:43:11;7.20;99.90
16732;DHT22;8484;50.904;9.192;2024-02-23T09:45:57;7.80;99.90
16732;DHT22;8484;50.904;9.192;2024-02-23T09:48:45;7.70;99.90
16732;DHT22;8484;50.904;9.192;2024-02-23T09:51:32;7.80;99.90
16732;DHT22;8484;50.904;9.192;2024-02-23T09:54:18;7.60;99.90
16732;DHT22;8484;50.904;9.192;2024-02-23T09:57:07;7.10;99.90
16732;DHT22;8484;50.904;9.192;2024-02-23T09:59:53;6.90;99.90
16732;DHT22;8484;50.904;9.192;2024-02-23T10:02:40;7.00;99.90
16732;DHT22;8484;50.904;9.192;2024-02-23T10:05:30;6.90;99.90
16732;DHT22;8484;50.904;9.192;2024-02-23T10:08:15;6.80;99.90
16732;DHT22;8484;50.904;9.192;2024-02-23T10:11:01;6.90;99.90
16732;DHT22;8484;50.904;9.192;2024-02-23T10:13:47;7.20;99.90
16732;DHT22;8484;50.904;9.192;2024-02-23T10:16:34;7.10;99.90
16732;DHT22;8484;50.904;9.192;2024-02-23T10:19:20;7.30;99.90
16732;DHT22;8484;50.904;9.192;2024-02-23T10:22:07;7.20;99.90
16732;DHT22;8484;50.904;9.192;2024-02-23T10:24:53;7.60;99.90
16732;DHT22;8484;50.904;9.192;2024-02-23T10:27:40;7.90;99.90
16732;DHT22;8484;50.904;9.192;2024-02-23T10:30:26;8.20;99.90
16732;DHT22;8484;50.904;9.192;2024-02-23T10:33:19;7.20;99.90
16732;DHT22;8484;50.904;9.192;2024-02-23T10:36:08;7.70;99.90
16732;DHT22;8484;50.904;9.192;2024-02-23T10:38:57;7.80;99.90
16732;DHT22;8484;50.904;9.192;2024-02-23T10:41:47;9.10;99.90
16732;DHT22;8484;50.904;9.192;2024-02-23T10:44:37;9.20;99.90
16732;DHT22;8484;50.904;9.192;2024-02-23T10:47:24;9.50;99.90
16732;DHT22;8484;50.904;9.192;2024-02-23T10:50:10;9.80;99.90
16732;DHT22;8484;50.904;9.192;2024-02-23T10:52:59;9.60;99.90
16732;DHT22;8484;50.904;9.192;2024-02-23T10:55:47;9.00;99.90
16732;DHT22;8484;50.904;9.192;2024-02-23T10:58:35;9.10;99.90
16732;DHT22;8484;50.904;9.192;2024-02-23T11:01:21;8.70;99.90
16732;DHT22;8484;50.904;9.192;2024-02-23T11:04:08;8.10;99.90
16732;DHT22;8484;50.904;9.192;2024-02-23T11:06:55;7.70;99.90
16732;DHT22;8484;50.904;9.192;2024-02-23T11:09:42;7.40;99.90
16732;DHT22;8484;50.904;9.192;2024-02-23T11:12:30;7.10;99.90
16732;DHT22;8484;50.904;9.192;2024-02-23T11:15:26;7.10;99.90
16732;DHT22;8484;50.904;9.192;2024-02-23T11:18:21;7.00;99.90
16732;DHT22;8484;50.904;9.192;2024-02-23T11:21:09;6.90;99.90
16732;DHT22;8484;50.904;9.192;2024-02-23T11:23:55;6.90;99.90
16732;DHT22;8484;50.904;9.192;2024-02-23T11:26:41;6.90;99.90
16732;DHT22;8484;50.904;9.192;2024-02-23T11:29:29;6.80;99.90
16732;DHT22;8484;50.904;9.192;2024-02-23T11:32:17;6.90;99.90
16732;DHT22;8484;50.904;9.192;2024-02-23T11:35:03;7.50;99.90
16732;DHT22;8484;50.904;9.192;2024-02-23T11:37:52;7.60;99.90
16732;DHT22;8484;50.904;9.192;2024-02-23T11:40:41;7.40;99.90
16732;DHT22;8484;50.904;9.192;2024-02-23T11:43:27;7.50;99.90
16732;DHT22;8484;50.904;9.192;2024-02-23T11:46:14;7.30;99.90
16732;DHT22;8484;50.904;9.192;2024-02-23T11:49:00;7.40;99.90
16732;DHT22;8484;50.904;9.192;2024-02-23T11:51:46;7.20;99.90
16732;DHT22;8484;50.904;9.192;2024-02-23T11:54:32;7.50;99.90
16732;DHT22;8484;50.904;9.192;2024-02-23T11:57:18;7.00;99.90
16732;DHT22;8484;50.904;9.192;2024-02-23T12:00:05;7.00;99.90
16732;DHT22;8484;50.904;9.192;2024-02-23T12:02:52;7.00;99.90
16732;DHT22;8484;50.904;9.192;2024-02-23T12:05:37;6.90;99.90
16732;DHT22;8484;50.904;9.192;2024-02-23T12:08:30;7.00;99.90
16732;DHT22;8484;50.904;9.192;2024-02-23T12:11:22;6.90;99.90
16732;DHT22;8484;50.904;9.192;2024-02-23T12:14:07;6.90;99.90
16732;DHT22;8484;50.904;9.192;2024-02-23T12:16:53;6.90;99.90
16732;DHT22;8484;50.904;9.192;2024-02-23T12:19:40;7.00;99.90
16732;DHT22;8484;50.904;9.192;2024-02-23T12:22:26;6.90;99.90
16732;DHT22;8484;50.904;9.192;2024-02-23T12:25:12;6.90;99.90
16732;DHT22;8484;50.904;9.192;2024-02-23T12:27:59;6.90;99.90
16732;DHT22;8484;50.904;9.192;2024-02-23T12:30:44;6.90;99.90
16732;DHT22;8484;50.904;9.192;2024-02-23T12:33:31;6.80;99.90
16732;DHT22;8484;50.904;9.192;2024-02-23T12:36:20;6.70;99.90
16732;DHT22;8484;50.904;9.192;2024-02-23T12:39:05;6.70;99.90
16732;DHT22;8484;50.904;9.192;2024-02-23T12:41:51;6.70;99.90
16732;DHT22;8484;50.904;9.192;2024-02-23T12:44:37;6.70;99.90
16732;DHT22;8484;50.904;9.192;2024-02-23T12:47:22;6.80;99.90
16732;DHT22;8484;50.904;9.192;2024-02-23T12:50:08;6.80;99.90
16732;DHT22;8484;50.904;9.192;2024-02-23T12:52:55;6.80;99.90
16732;DHT22;8484;50.904;9.192;2024-02-23T12:55:41;6.70;99.90
16732;DHT22;8484;50.904;9.192;2024-02-23T12:58:26;6.70;99.90
16732;DHT22;8484;50.904;9.192;2024-02-23T13:01:12;6.80;99.90
16732;DHT22;8484;50.904;9.192;2024-02-23T13:03:58;6.80;99.90
16732;DHT22;8484;50.904;9.192;2024-02-23T13:06:43;6.90;99.90
16732;DHT22;8484;50.904;9.192;2024-02-23T13:09:30;6.90;99.90
16732;DHT22;8484;50.904;9.192;2024-02-23T13:12:16;7.00;99.90
16732;DHT22;8484;50.904;9.192;2024-02-23T13:15:02;7.20;99.90
16732;DHT22;8484;50.904;9.192;2024-02-23T13:17:47;7.20;99.90
16732;DHT22;8484;50.904;9.192;2024-02-23T13:20:33;7.50;99.90
16732;DHT22;8484;50.904;9.192;2024-02-23T13:23:19;8.00;99.90
16732;DHT22;8484;50.904;9.192;2024-02-23T13:26:06;7.80;99.90
16732;DHT22;8484;50.904;9.192;2024-02-23T13:28:51;7.70;99.90
16732;DHT22;8484;50.904;9.192;2024-02-23T13:31:37;7.60;99.90
16732;DHT22;8484;50.904;9.192;2024-02-23T13:34:23;7.50;99.90
16732;DHT22;8484;50.904;9.192;2024-02-23T13:37:09;7.40;99.90
16732;DHT22;8484;50.904;9.192;2024-02-23T13:39:54;7.30;99.90
16732;DHT22;8484;50.904;9.192;2024-02-23T13:42:41;7.30;99.90
16732;DHT22;8484;50.904;9.192;2024-02-23T13:45:30;7.50;99.90
16732;DHT22;8484;50.904;9.192;2024-02-23T13:48:16;8.00;99.90
16732;DHT22;8484;50.904;9.192;2024-02-23T13:51:03;7.90;99.90
16732;DHT22;8484;50.904;9.192;2024-02-23T13:53:49;8.90;99.90
16732;DHT22;8484;50.904;9.192;2024-02-23T13:56:35;8.80;99.90
16732;DHT22;8484;50.904;9.192;2024-02-23T13:59:21;8.70;99.90
16732;DHT22;8484;50.904;9.192;2024-02-23T14:02:08;8.90;99.90
16732;DHT22;8484;50.904;9.192;2024-02-23T14:04:55;9.10;99.90
16732;DHT22;8484;50.904;9.192;2024-02-23T14:07:45;9.20;99.90
16732;DHT22;8484;50.904;9.192;2024-02-23T14:10:31;8.90;99.90
16732;DHT22;8484;50.904;9.192;2024-02-23T14:13:16;8.30;99.90
16732;DHT22;8484;50.904;9.192;2024-02-23T14:16:04;8.40;99.90
16732;DHT22;8484;50.904;9.192;2024-02-23T14:18:50;8.00;99.90
16732;DHT22;8484;50.904;9.192;2024-02-23T14:21:35;7.90;99.90
16732;DHT22;8484;50.904;9.192;2024-02-23T14:24:21;7.80;99.90
16732;DHT22;8484;50.904;9.192;2024-02-23T14:27:07;7.90;99.90
16732;DHT22;8484;50.904;9.192;2024-02-23T14:29:52;8.20;99.90
16732;DHT22;8484;50.904;9.192;2024-02-23T14:32:40;8.40;99.90
16732;DHT22;8484;50.904;9.192;2024-02-23T14:35:26;8.70;99.90
16732;DHT22;8484;50.904;9.192;2024-02-23T14:38:12;8.90;99.90
16732;DHT22;8484;50.904;9.192;2024-02-23T14:40:57;8.60;99.90
16732;DHT22;8484;50.904;9.192;2024-02-23T14:43:43;8.10;99.90
16732;DHT22;8484;50.904;9.192;2024-02-23T14:46:29;7.90;99.90
16732;DHT22;8484;50.904;9.192;2024-02-23T14:49:16;7.90;99.90
16732;DHT22;8484;50.904;9.192;2024-02-23T14:52:01;7.90;99.90
16732;DHT22;8484;50.904;9.192;2024-02-23T14:54:47;7.80;99.90
16732;DHT22;8484;50.904;9.192;2024-02-23T14:57:33;7.50;99.90
16732;DHT22;8484;50.904;9.192;2024-02-23T15:00:19;7.40;99.90
16732;DHT22;8484;50.904;9.192;2024-02-23T15:03:05;7.30;99.90
16732;DHT22;8484;50.904;9.192;2024-02-23T15:05:54;7.20;99.90
16732;DHT22;8484;50.904;9.192;2024-02-23T15:08:40;7.20;99.90
16732;DHT22;8484;50.904;9.192;2024-02-23T15:11:25;7.40;99.90
16732;DHT22;8484;50.904;9.192;2024-02-23T15:14:11;7.30;99.90
16732;DHT22;8484;50.904;9.192;2024-02-23T15:16:59;7.30;99.90
16732;DHT22;8484;50.904;9.192;2024-02-23T15:19:45;7.40;99.90
16732;DHT22;8484;50.904;9.192;2024-02-23T15:22:32;7.70;99.90
16732;DHT22;8484;50.904;9.192;2024-02-23T15:25:18;7.80;99.90
16732;DHT22;8484;50.904;9.192;2024-02-23T15:28:03;8.10;99.90
16732;DHT22;8484;50.904;9.192;2024-02-23T15:30:49;7.90;99.90
16732;DHT22;8484;50.904;9.192;2024-02-23T15:33:34;8.00;99.90
16732;DHT22;8484;50.904;9.192;2024-02-23T15:36:22;7.70;99.90
16732;DHT22;8484;50.904;9.192;2024-02-23T15:39:09;7.50;99.90
16732;DHT22;8484;50.904;9.192;2024-02-23T15:41:56;7.40;99.90
16732;DHT22;8484;50.904;9.192;2024-02-23T15:44:41;7.30;99.90
16732;DHT22;8484;50.904;9.192;2024-02-23T15:47:27;7.20;99.90
16732;DHT22;8484;50.904;9.192;2024-02-23T15:50:13;7.20;99.90
16732;DHT22;8484;50.904;9.192;2024-02-23T15:52:58;7.10;99.90
16732;DHT22;8484;50.904;9.192;2024-02-23T15:55:45;6.90;99.90
16732;DHT22;8484;50.904;9.192;2024-02-23T15:58:30;6.80;99.90
16732;DHT22;8484;50.904;9.192;2024-02-23T16:01:16;6.70;99.90
16732;DHT22;8484;50.904;9.192;2024-02-23T16:04:02;6.60;99.90
16732;DHT22;8484;50.904;9.192;2024-02-23T16:06:48;6.70;99.90
16732;DHT22;8484;50.904;9.192;2024-02-23T16:09:34;6.80;99.90
16732;DHT22;8484;50.904;9.192;2024-02-23T16:12:21;6.50;99.90
16732;DHT22;8484;50.904;9.192;2024-02-23T16:15:07;6.30;99.90
16732;DHT22;8484;50.904;9.192;2024-02-23T16:17:53;6.40;99.90
16732;DHT22;8484;50.904;9.192;2024-02-23T16:20:40;6.40;99.90
16732;DHT22;8484;50.904;9.192;2024-02-23T16:23:25;6.40;99.90
16732;DHT22;8484;50.904;9.192;2024-02-23T16:26:11;6.20;99.90
16732;DHT22;8484;50.904;9.192;2024-02-23T16:28:58;6.30;99.90
16732;DHT22;8484;50.904;9.192;2024-02-23T16:31:43;6.30;99.90
16732;DHT22;8484;50.904;9.192;2024-02-23T16:34:29;6.20;99.90
16732;DHT22;8484;50.904;9.192;2024-02-23T16:37:15;6.10;99.90
16732;DHT22;8484;50.904;9.192;2024-02-23T16:40:02;6.10;99.90
16732;DHT22;8484;50.904;9.192;2024-02-23T16:42:48;6.10;99.90
16732;DHT22;8484;50.904;9.192;2024-02-23T16:45:34;6.10;99.90
16732;DHT22;8484;50.904;9.192;2024-02-23T16:48:20;6.00;99.90
16732;DHT22;8484;50.904;9.192;2024-02-23T16:51:06;5.90;99.90
16732;DHT22;8484;50.904;9.192;2024-02-23T16:53:51;5.90;99.90
16732;DHT22;8484;50.904;9.192;2024-02-23T16:56:37;5.60;99.90
16732;DHT22;8484;50.904;9.192;2024-02-23T16:59:23;5.50;99.90
16732;DHT22;8484;50.904;9.192;2024-02-23T17:02:09;5.70;99.90
16732;DHT22;8484;50.904;9.192;2024-02-23T17:04:55;5.60;99.90
16732;DHT22;8484;50.904;9.192;2024-02-23T17:07:44;5.70;99.90
16732;DHT22;8484;50.904;9.192;2024-02-23T17:10:30;5.80;99.90
16732;DHT22;8484;50.904;9.192;2024-02-23T17:13:15;5.70;99.90
16732;DHT22;8484;50.904;9.192;2024-02-23T17:16:01;5.70;99.90
16732;DHT22;8484;50.904;9.192;2024-02-23T17:18:48;5.80;99.90
16732;DHT22;8484;50.904;9.192;2024-02-23T17:21:33;5.50;99.90
16732;DHT22;8484;50.904;9.192;2024-02-23T17:24:19;5.60;99.90
16732;DHT22;8484;50.904;9.192;2024-02-23T17:27:11;5.40;99.90
16732;DHT22;8484;50.904;9.192;2024-02-23T17:29:56;5.40;99.90
16732;DHT22;8484;50.904;9.192;2024-02-23T17:32:42;5.20;99.90
16732;DHT22;8484;50.904;9.192;2024-02-23T17:35:29;5.10;99.90
16732;DHT22;8484;50.904;9.192;2024-02-23T17:38:14;4.80;99.90
16732;DHT22;8484;50.904;9.192;2024-02-23T17:41:00;4.50;99.90
16732;DHT22;8484;50.904;9.192;2024-02-23T17:43:46;4.80;99.90
16732;DHT22;8484;50.904;9.192;2024-02-23T17:46:32;4.50;99.90
16732;DHT22;8484;50.904;9.192;2024-02-23T17:49:17;4.70;99.90
16732;DHT22;8484;50.904;9.192;2024-02-23T17:52:05;4.60;99.90
16732;DHT22;8484;50.904;9.192;2024-02-23T17:54:50;4.70;99.90
16732;DHT22;8484;50.904;9.192;2024-02-23T17:57:36;4.40;99.90
16732;DHT22;8484;50.904;9.192;2024-02-23T18:00:22;4.20;99.90
16732;DHT22;8484;50.904;9.192;2024-02-23T18:03:07;4.30;99.90
16732;DHT22;8484;50.904;9.192;2024-02-23T18:05:52;4.20;99.90